Maplewood, Washington
Current Conditions -  °F | °C
As of 5:58 PM on Wednesday 26 Nov 2014 (Local Time) from KTCM Reporting Station
Overcast Overcast  
Wind Chill: 54°   Ceiling: 13000
Heat Index: 54°   Visibility: 10mi
Dew Point: 53°   Wind: 0mph
Humidity: 95%   Direction: NA
Pressure: 29.94"   Gusts: NA
Location:  47.1905°N, 122.328°W
Report Text: KTCM 270158Z AUTO 00000KT 10SM BKN130 OVC150 12/12 A2994 RMK AO2 SLP143 T01240116 $
Loading
Personal Weather Stations






























Interactive Weather Map New forecast layout! Learn more

10-Day Weather Forecast

Advertisements
Track Severe Weather on mobile